Latest Weather Observations for Christmas Island

IDW60801

Issued at 4:53 am WST Tuesday 24 September 2019 (issued every 10 minutes, with the page automatically refreshed every 10 minutes)

About weather observations | Map of weather stations | Latest weather observations for WA | Other Formats
Station Details ID: 200790 Name: CHRISTMAS ISLAND AERO Lat: -10.45 Lon: 105.69 Height: 261.0 m
Data from the previous 72 hours. | See also: Recent months at Christmas Island
Date/Time
WST
Temp
°C
App
Temp
°C
Dew
Point
°C
Rel
Hum
%
Delta-T
°C
Wind Press
QNH
hPa
Press
MSL
hPa
Rain since
9am
mm
Dir  Spd
km/h
Gust
km/h
Spd
kts
Gust
kts
24/04:30am 22.6 22.8 21.4 93 0.8 ESE 22 32 12 17 1014.9 1013.5 0.0
24/04:00am 22.8 23.1 21.6 93 0.8 ESE 22 33 12 18 1014.9 1013.5 0.0
24/03:30am 22.8 23.1 21.6 93 0.8 ESE 22 32 12 17 1015.1 1013.7 0.0
24/03:00am 22.7 23.3 21.3 92 0.9 ESE 20 32 11 17 1015.3 1013.9 0.0
24/02:30am 22.9 23.3 21.7 93 0.8 ESE 22 32 12 17 1015.4 1014.0 0.0
24/02:00am 23.0 23.3 21.6 92 0.9 ESE 22 30 12 16 1015.4 1014.0 0.0
24/01:30am 23.1 23.0 21.5 91 1.1 ESE 24 32 13 17 1015.7 1014.3 0.0
24/01:00am 22.9 22.7 21.2 90 1.1 ESE 24 32 13 17 1015.9 1014.4 0.0
24/12:30am 23.1 23.4 21.5 91 1.1 ESE 22 33 12 18 1016.2 1014.7 0.0
24/12:00am 23.1 23.3 21.4 90 1.1 ESE 22 32 12 17 1016.4 1014.9 0.0
 
Date/Time
WST
Temp
°C
App
Temp
°C
Dew
Point
°C
Rel
Hum
%
Delta-T
°C
Wind Press
QNH
hPa
Press
MSL
hPa
Rain since
9am
mm
Dir  Spd
km/h
Gust
km/h
Spd
kts
Gust
kts
23/11:30pm 23.2 23.3 21.1 88 1.4 E 22 32 12 17 1016.7 1015.2 0.0
23/11:00pm 23.3 23.5 21.4 89 1.3 ESE 22 32 12 17 1016.7 1015.2 0.0
23/10:30pm 23.3 23.2 21.4 89 1.3 ESE 24 35 13 19 1016.5 1015.0 0.0
23/10:00pm 23.2 23.0 21.3 89 1.3 ESE 24 35 13 19 1016.3 1014.8 0.0
23/09:30pm 23.2 22.7 21.5 90 1.1 ESE 26 37 14 20 1016.0 1014.5 0.0
23/09:00pm 23.3 22.8 21.4 89 1.3 ESE 26 35 14 19 1015.5 1014.1 0.0
23/08:30pm 23.2 22.6 21.3 89 1.3 ESE 26 37 14 20 1015.4 1014.0 0.0
23/08:00pm 23.3 23.2 21.4 89 1.3 ESE 24 35 13 19 1015.1 1013.7 0.0
23/07:30pm 23.3 23.1 21.2 88 1.4 ESE 24 37 13 20 1014.9 1013.5 0.0
23/07:00pm 23.4 23.3 21.5 89 1.3 ESE 24 41 13 22 1014.6 1013.2 0.0
23/06:30pm 23.5 22.9 21.2 87 1.5 ESE 26 35 14 19 1014.2 1012.8 0.0
23/06:00pm 23.7 23.3 21.0 85 1.8 ESE 24 35 13 19 1014.0 1012.5 0.0
23/05:30pm 24.1 23.9 21.2 84 1.9 ESE 24 35 13 19 1013.6 1012.1 0.0
23/05:00pm 24.1 23.0 21.0 83 2.1 ESE 28 35 15 19 1013.4 1011.9 0.0
23/04:30pm 24.2 23.1 21.1 83 2.1 ESE 28 35 15 19 1013.3 1011.8 0.0
23/04:00pm 24.6 23.7 20.7 79 2.6 ESE 26 37 14 20 1013.4 1011.9 0.0
23/03:30pm 24.8 24.1 21.1 80 2.5 ESE 26 35 14 19 1013.4 1011.9 0.0
23/03:00pm 24.2 23.0 20.9 82 2.2 ESE 28 37 15 20 1013.6 1012.1 0.0
23/02:30pm 24.4 23.1 20.7 80 2.4 ESE 28 39 15 21 1013.8 1012.3 0.0
23/02:00pm 24.7 23.9 20.8 79 2.6 ESE 26 33 14 18 1014.2 1012.8 0.0
23/01:30pm 25.4 25.2 21.3 78 2.7 ESE 24 35 13 19 1014.5 1013.1 0.0
23/01:00pm 24.4 23.1 20.7 80 2.4 ESE 28 37 15 20 1014.9 1013.5 0.0
23/12:30pm 24.8 24.3 20.7 78 2.7 ESE 24 33 13 18 1015.4 1014.0 0.0
23/12:00pm 24.2 23.6 20.5 80 2.4 ESE 24 35 13 19 1016.0 1014.5 0.0
23/11:30am 24.5 24.5 21.0 81 2.3 ESE 22 32 12 17 1016.5 1015.0 0.0
23/11:00am 24.3 23.9 21.0 82 2.2 ESE 24 33 13 18 1016.7 1015.2 0.0
23/10:30am 24.0 23.5 20.7 82 2.2 E 24 39 13 21 1016.9 1015.4 0.0
23/10:00am 23.7 23.9 20.6 83 2.0 ESE 20 33 11 18 1017.2 1015.7 0.0
23/09:30am 23.8 23.4 20.9 84 1.9 ESE 24 33 13 18 1017.2 1015.7 0.0
23/09:00am 23.8 23.2 20.5 82 2.2 ESE 24 33 13 18 1017.1 1015.6 0.0
23/08:30am 23.6 23.3 20.3 82 2.2 ESE 22 30 12 16 1016.9 1015.4 0.0
23/08:00am 23.5 23.3 20.6 84 1.9 ESE 22 32 12 17 1016.6 1015.1 0.0
23/07:30am 23.0 23.1 20.3 85 1.8 ESE 20 32 11 17 1016.3 1014.8 0.0
23/07:00am 22.8 22.4 20.1 85 1.8 ESE 22 32 12 17 1016.1 1014.6 0.0
23/06:50am 22.8 22.9 20.3 86 1.6 E 20 30 11 16 1016.0 1014.5 0.0
23/06:30am 22.8 22.5 20.3 86 1.6 ESE 22 33 12 18 1015.9 1014.4 0.0
23/06:00am 22.7 22.8 20.4 87 1.5 ESE 20 28 11 15 1015.5 1014.1 0.0
23/05:30am 22.8 23.0 20.5 87 1.5 ESE 20 28 11 15 1015.4 1014.0 0.0
23/05:00am 22.9 23.1 20.6 87 1.5 ESE 20 30 11 16 1015.1 1013.7 0.0
23/04:30am 22.6 22.3 20.3 87 1.5 ESE 22 33 12 18 1014.9 1013.5 0.0
23/04:00am 22.8 22.7 20.7 88 1.4 ESE 22 35 12 19 1014.8 1013.4 0.0
23/03:30am 22.7 22.5 20.6 88 1.4 ESE 22 33 12 18 1015.0 1013.6 0.0
23/03:00am 22.7 22.8 20.4 87 1.5 ESE 20 33 11 18 1015.2 1013.8 0.0
23/02:30am 22.8 22.5 20.3 86 1.6 ESE 22 33 12 18 1015.4 1014.0 0.0
23/02:00am 22.9 23.0 20.4 86 1.6 ESE 20 32 11 17 1015.6 1014.2 0.0
23/01:30am 22.8 22.5 20.3 86 1.6 ESE 22 35 12 19 1015.9 1014.4 0.0
23/01:00am 22.8 22.6 20.5 87 1.5 ESE 22 33 12 18 1016.1 1014.6 0.0
23/12:30am 22.9 22.3 20.6 87 1.5 ESE 24 37 13 20 1016.2 1014.7 0.0
23/12:00am 22.8 22.2 20.5 87 1.5 ESE 24 33 13 18 1016.4 1014.9 0.0
 
Date/Time
WST
Temp
°C
App
Temp
°C
Dew
Point
°C
Rel
Hum
%
Delta-T
°C
Wind Press
QNH
hPa
Press
MSL
hPa
Rain since
9am
mm
Dir  Spd
km/h
Gust
km/h
Spd
kts
Gust
kts
22/11:30pm 22.8 22.6 20.5 87 1.5 ESE 22 32 12 17 1016.5 1015.0 0.0
22/11:26pm 22.8 22.2 20.5 87 1.5 ESE 24 35 13 19 1016.6 - 0.0
22/11:21pm 22.8 22.2 20.5 87 1.5 ESE 24 35 13 19 1016.6 1015.1 0.0
22/11:20pm 22.8 22.2 20.5 87 1.5 ESE 24 35 13 19 1016.6 - 0.0
22/11:10pm 22.8 21.7 20.3 86 1.6 ESE 26 35 14 19 1016.7 - 0.0
22/11:05pm 22.8 21.6 20.1 85 1.8 ESE 26 35 14 19 1016.7 1015.2 0.0
22/11:04pm 22.8 21.7 20.3 86 1.6 ESE 26 35 14 19 1016.7 - 0.0
22/11:00pm 22.8 21.6 20.1 85 1.8 ESE 26 35 14 19 1016.7 1015.2 0.0
22/10:30pm 22.9 21.9 20.4 86 1.6 ESE 26 39 14 21 1016.7 1015.2 0.0
22/10:00pm 22.9 22.1 20.1 84 1.8 ESE 24 37 13 20 1016.5 1015.0 0.0
22/09:30pm 22.8 22.0 20.0 84 1.8 ESE 24 35 13 19 1016.3 1014.8 0.0
22/09:00pm 22.9 22.7 20.6 87 1.5 ESE 22 33 12 18 1016.0 1014.5 0.0
22/08:30pm 22.8 22.5 20.3 86 1.6 SE 22 35 12 19 1015.6 1014.2 0.0
22/08:00pm 22.9 21.7 20.1 84 1.8 SE 26 37 14 20 1015.2 1013.8 0.0
22/07:30pm 23.0 22.3 20.3 85 1.8 ESE 24 32 13 17 1015.0 1013.6 0.0
22/07:00pm 23.0 22.1 19.8 82 2.1 ESE 24 33 13 18 1014.7 1013.3 0.0
22/06:30pm 23.1 22.1 19.7 81 2.2 ESE 24 37 13 20 1014.5 1013.1 0.0
22/06:00pm 23.3 22.9 20.1 82 2.1 ESE 22 33 12 18 1014.2 1012.8 0.0
22/05:30pm 23.5 22.9 19.8 80 2.4 ESE 22 32 12 17 1014.0 1012.5 0.0
22/05:21pm 23.8 23.3 19.9 79 2.5 SE 22 32 12 17 1013.9 - 0.0
22/05:16pm 23.7 23.2 20.0 80 2.4 SE 22 32 12 17 1013.9 1012.4 0.0
22/05:15pm 23.8 23.3 19.9 79 2.5 SE 22 32 12 17 1013.9 - 0.0
22/05:04pm 24.3 23.7 19.8 76 2.9 ESE 22 30 12 16 1013.9 - 0.0
22/05:00pm 24.3 24.1 19.8 76 2.9 SE 20 30 11 16 1013.9 1012.4 0.0
22/04:59pm 24.3 24.1 19.8 76 2.9 SE 20 30 11 16 1013.9 1012.4 0.0
22/04:58pm 24.3 23.7 19.8 76 2.9 ESE 22 30 12 16 1013.9 - 0.0
22/04:30pm 23.9 22.9 19.6 77 2.8 ESE 24 35 13 19 1013.9 1012.4 0.0
22/04:00pm 24.4 23.5 19.9 76 2.9 ESE 24 33 13 18 1013.9 1012.4 0.0
22/03:30pm 24.1 23.7 20.2 79 2.6 ESE 22 35 12 19 1014.1 1012.6 0.0
22/03:00pm 23.9 23.1 20.0 79 2.5 ESE 24 33 13 18 1014.2 1012.8 0.0
22/02:38pm 24.3 23.5 20.0 77 2.8 ESE 24 32 13 17 1014.5 - 0.0
22/02:33pm 24.3 23.5 20.0 77 2.8 ESE 24 32 13 17 1014.5 1013.1 0.0
22/02:32pm 24.3 23.8 20.0 77 2.8 ESE 22 32 12 17 1014.5 - 0.0
22/02:30pm 24.4 23.6 20.1 77 2.8 ESE 24 30 13 16 1014.5 1013.1 0.0
22/02:14pm 24.9 24.0 19.9 74 3.3 ESE 24 32 13 17 1014.7 - 0.0
22/02:11pm 25.9 25.8 20.7 73 3.4 ESE 22 32 12 17 1014.6 1013.2 0.0
22/02:08pm 24.9 24.0 19.9 74 3.3 ESE 24 32 13 17 1014.7 - 0.0
22/02:00pm 24.8 23.8 19.6 73 3.4 ESE 24 35 13 19 1014.7 1013.3 0.0
22/01:30pm 24.3 23.7 19.8 76 2.9 ESE 22 32 12 17 1015.0 1013.6 0.0
22/01:00pm 24.3 23.6 20.2 78 2.7 ESE 24 33 13 18 1015.3 1013.9 0.0
22/12:30pm 23.9 23.0 19.8 78 2.7 ESE 24 32 13 17 1015.6 1014.2 0.0
22/12:00pm 24.2 23.5 20.3 79 2.6 ESE 24 32 13 17 1016.1 1014.6 0.0
22/11:30am 24.0 23.8 20.5 81 2.3 SE 22 30 12 16 1016.5 1015.0 0.0
22/11:00am 23.2 22.7 20.0 82 2.1 ESE 22 32 12 17 1016.8 1015.3 0.0
22/10:30am 23.6 22.7 19.9 80 2.4 ESE 24 32 13 17 1017.0 1015.5 0.0
22/10:00am 23.5 22.8 19.6 79 2.5 ESE 22 32 12 17 1017.0 1015.5 0.0
22/09:30am 23.8 23.8 20.1 80 2.4 ESE 20 28 11 15 1017.1 1015.6 0.0
22/09:00am 23.1 23.1 20.1 83 2.0 ESE 20 28 11 15 1017.1 1015.6 0.0
22/08:58am 23.0 22.8 19.8 82 2.1 ESE 20 28 11 15 1017.2 1015.7 0.0
22/08:57am 23.0 22.8 19.8 82 2.1 ESE 20 28 11 15 1017.2 - 0.0
22/08:43am 23.0 22.8 19.8 82 2.1 ESE 20 28 11 15 1017.1 1015.6 0.0
22/08:42am 23.0 22.8 19.8 82 2.1 ESE 20 28 11 15 1017.1 - 0.0
22/08:30am 22.8 22.7 19.6 82 2.1 ESE 19 30 10 16 1017.0 1015.5 0.0
22/08:00am 22.7 22.4 19.5 82 2.1 ESE 20 30 11 16 1016.7 1015.2 0.0
22/07:30am 22.3 22.1 19.3 83 1.9 SE 19 26 10 14 1016.4 1014.9 0.0
22/07:18am 22.3 22.2 19.5 84 1.8 SE 19 28 10 15 1016.2 1014.7 0.0
22/07:17am 22.3 22.2 19.5 84 1.8 SE 19 28 10 15 1016.2 - 0.0
22/07:00am 22.2 22.4 19.4 84 1.8 SE 17 24 9 13 1016.0 1014.5 0.0
22/06:30am 22.1 21.6 19.1 83 1.9 SE 20 26 11 14 1015.6 1014.2 0.0
22/06:29am 22.1 21.6 19.1 83 1.9 SE 20 26 11 14 1015.5 - 0.0
22/06:00am 22.2 21.7 19.2 83 1.9 SE 20 28 11 15 1015.1 1013.7 0.0
22/05:30am 22.2 22.0 19.4 84 1.8 SE 19 26 10 14 1015.1 1013.7 0.0
22/05:00am 22.2 21.9 19.6 85 1.7 SE 20 30 11 16 1014.9 1013.5 0.0
22/04:30am 22.2 21.8 19.4 84 1.8 SE 20 30 11 16 1014.8 1013.4 0.0
22/04:00am 22.2 21.5 19.4 84 1.8 SE 22 33 12 18 1014.9 1013.5 0.0
22/03:30am 22.3 22.1 19.7 85 1.7 SE 20 30 11 16 1015.1 1013.7 0.0
22/03:12am 22.3 22.6 19.7 85 1.7 SE 17 26 9 14 1015.2 1013.8 0.0
22/03:11am 22.3 22.3 19.7 85 1.7 SE 19 32 10 17 1015.2 - 0.0
22/03:05am 22.3 22.2 19.5 84 1.8 SE 19 32 10 17 1015.3 1013.9 0.0
22/03:04am 22.3 22.6 19.5 84 1.8 SE 17 32 9 17 1015.3 - 0.0
22/03:00am 22.3 22.2 19.5 84 1.8 SE 19 24 10 13 1015.4 1014.0 0.0
22/02:55am 22.4 22.1 19.6 84 1.8 SE 20 28 11 15 1015.4 1014.0 0.0
22/02:54am 22.4 22.3 19.6 84 1.8 SE 19 28 10 15 1015.4 - 0.0
22/02:46am 22.3 21.8 19.1 82 2.0 SE 20 30 11 16 1015.4 1014.0 0.0
22/02:45am 22.4 22.0 19.4 83 1.9 SE 20 30 11 16 1015.4 - 0.0
22/02:30am 22.3 22.1 19.3 83 1.9 SE 19 28 10 15 1015.5 1014.1 0.0
22/02:00am 22.4 22.0 19.4 83 1.9 SE 20 30 11 16 1015.5 1014.1 0.0
22/01:42am 22.4 22.0 19.4 83 1.9 SE 20 32 11 17 1015.7 1014.3 0.0
22/01:41am 22.5 22.2 19.5 83 1.9 ESE 20 32 11 17 1015.6 - 0.0
22/01:30am 22.4 21.7 19.4 83 1.9 SE 22 33 12 18 1015.7 1014.3 0.0
22/01:21am 22.4 22.2 19.4 83 1.9 SE 19 28 10 15 1015.7 1014.3 0.0
22/01:20am 22.4 22.0 19.4 83 1.9 SE 20 28 11 15 1015.7 - 0.0
22/01:00am 22.5 21.8 19.5 83 1.9 ESE 22 33 12 18 1016.0 1014.5 0.0
22/12:30am 22.4 22.3 19.6 84 1.8 SE 19 30 10 16 1016.1 1014.6 0.0
22/12:02am 22.5 21.9 19.7 84 1.8 ESE 22 33 12 18 1016.3 1014.8 0.0
22/12:01am 22.5 21.9 19.7 84 1.8 ESE 22 33 12 18 1016.3 - 0.0
22/12:00am 22.5 21.9 19.7 84 1.8 ESE 22 33 12 18 1016.3 1014.8 0.0
 
Date/Time
WST
Temp
°C
App
Temp
°C
Dew
Point
°C
Rel
Hum
%
Delta-T
°C
Wind Press
QNH
hPa
Press
MSL
hPa
Rain since
9am
mm
Dir  Spd
km/h
Gust
km/h
Spd
kts
Gust
kts
21/11:30pm 22.5 22.1 19.3 82 2.1 SE 20 33 11 18 1016.5 1015.0 0.0
21/11:14pm 22.5 22.1 19.3 82 2.1 SE 20 35 11 19 1016.5 - 0.0
21/11:00pm 22.5 22.1 19.3 82 2.1 SE 20 33 11 18 1016.4 1014.9 0.0
21/10:30pm 22.6 22.1 19.2 81 2.2 ESE 20 30 11 16 1016.5 1015.0 0.0
21/10:00pm 22.6 21.7 19.0 80 2.3 SE 22 37 12 20 1016.3 1014.8 0.0
21/09:44pm 22.6 21.8 19.2 81 2.2 SE 22 35 12 19 1016.2 - 0.0
21/09:39pm 22.6 21.8 19.2 81 2.2 SE 22 35 12 19 1016.2 1014.7 0.0
21/09:38pm 22.6 21.8 19.2 81 2.2 SE 22 35 12 19 1016.2 - 0.0
21/09:30pm 22.6 21.4 19.2 81 2.2 SE 24 32 13 17 1016.1 1014.6 0.0
21/09:00pm 22.6 22.2 19.4 82 2.1 SE 20 32 11 17 1015.7 1014.3 0.0
21/08:30pm 22.6 21.9 19.4 82 2.1 SE 22 33 12 18 1015.5 1014.1 0.0
21/08:00pm 22.6 21.9 19.6 83 1.9 SE 22 35 12 19 1015.3 1013.9 0.0
21/07:53pm 22.7 22.0 19.5 82 2.1 SE 22 35 12 19 1015.3 - 0.0
21/07:49pm 22.7 22.0 19.5 82 2.1 SE 22 32 12 17 1015.3 - 0.0
21/07:48pm 22.6 21.5 19.4 82 2.1 SE 24 35 13 19 1015.3 1013.9 0.0
21/07:47pm 22.7 22.0 19.5 82 2.1 SE 22 35 12 19 1015.3 - 0.0
21/07:44pm 22.7 22.0 19.5 82 2.1 SE 22 32 12 17 1015.3 1013.9 0.0
21/07:43pm 22.7 22.0 19.5 82 2.1 SE 22 32 12 17 1015.3 - 0.0
21/07:30pm 22.6 21.5 19.4 82 2.1 SE 24 37 13 20 1015.1 1013.7 0.0
21/07:23pm 22.7 21.9 19.3 81 2.2 SE 22 35 12 19 1015.0 - 0.0
21/07:19pm 22.6 21.4 19.2 81 2.2 SE 24 35 13 19 1014.9 - 0.0
21/07:18pm 22.7 22.3 19.3 81 2.2 SE 20 35 11 19 1015.0 1013.6 0.0
21/07:17pm 22.7 21.9 19.3 81 2.2 SE 22 35 12 19 1015.0 - 0.0
21/07:14pm 22.6 21.4 19.2 81 2.2 SE 24 35 13 19 1014.9 1013.5 0.0
21/07:13pm 22.6 21.8 19.2 81 2.2 SE 22 35 12 19 1014.9 - 0.0
21/07:00pm 22.7 21.6 19.5 82 2.1 SE 24 35 13 19 1014.8 1013.4 0.0
21/06:50pm 22.6 21.3 19.0 80 2.3 SE 24 41 13 22 1014.8 - 0.0
21/06:45pm 22.7 21.4 19.1 80 2.3 SE 24 41 13 22 1014.8 1013.4 0.0
21/06:44pm 22.6 21.3 19.0 80 2.3 SE 24 41 13 22 1014.8 - 0.0
21/06:30pm 22.8 21.7 19.4 81 2.2 SE 24 39 13 21 1014.7 1013.3 0.0
21/06:00pm 23.1 22.3 19.3 79 2.4 SE 22 35 12 19 1014.4 1013.0 0.0
21/05:41pm 23.1 21.8 19.1 78 2.6 SE 24 35 13 19 1014.3 - 0.0
21/05:36pm 23.1 21.9 19.3 79 2.4 SE 24 33 13 18 1014.3 1012.9 0.0
21/05:35pm 23.1 21.8 19.1 78 2.6 SE 24 35 13 19 1014.3 - 0.0
21/05:30pm 23.1 21.5 19.3 79 2.4 SE 26 46 14 25 1014.2 1012.8 0.0
21/05:00pm 23.4 22.6 19.3 78 2.6 SE 22 32 12 17 1014.2 1012.8 0.0
21/04:50pm 23.4 22.3 19.5 79 2.5 SE 24 33 13 18 1014.2 - 0.0
21/04:45pm 23.3 22.3 19.7 80 2.3 SE 24 35 13 19 1014.2 1012.8 0.0
21/04:44pm 23.4 22.3 19.5 79 2.5 SE 24 33 13 18 1014.2 - 0.0
21/04:30pm 23.9 22.4 19.4 76 2.9 SE 26 39 14 21 1014.1 1012.6 0.0
21/04:00pm 24.2 23.2 18.8 72 3.5 ESE 22 33 12 18 1014.3 1012.9 0.0
21/03:30pm 24.2 22.6 19.1 73 3.3 SE 26 37 14 20 1014.4 1013.0 0.0
21/03:00pm 24.6 23.0 19.2 72 3.5 SE 26 39 14 21 1014.6 1013.2 0.0
21/02:44pm 24.4 22.2 18.8 71 3.6 SE 28 43 15 23 1014.7 - 0.0
21/02:30pm 24.5 22.8 18.9 71 3.6 SE 26 37 14 20 1014.8 1013.4 0.0
21/02:00pm 24.4 23.1 19.9 76 2.9 SE 26 41 14 22 1015.1 1013.7 0.0
21/01:30pm 24.5 23.1 19.6 74 3.2 SE 26 35 14 19 1015.5 1014.1 0.0
21/01:00pm 24.5 22.9 19.1 72 3.5 SE 26 41 14 22 1015.7 1014.3 0.0
21/12:30pm 24.6 23.5 19.4 73 3.4 SE 24 39 13 21 1016.1 1014.6 0.0
21/12:02pm 24.6 23.0 19.2 72 3.5 SE 26 39 14 21 1016.5 - 0.0
21/12:00pm 24.6 23.1 19.4 73 3.4 SE 26 39 14 21 1016.4 1014.9 0.0
21/11:30am 25.1 23.7 19.7 72 3.5 SE 26 41 14 22 1016.6 1015.1 0.0
21/11:22am 24.6 24.0 19.7 74 3.2 SE 22 32 12 17 1016.9 - 0.0
21/11:05am 24.1 22.6 19.4 75 3.0 SE 26 39 14 21 1017.1 - 0.0
21/11:00am 24.1 22.5 19.2 74 3.2 SE 26 39 14 21 1017.1 1015.6 0.0
21/10:45am 24.0 21.9 18.9 73 3.3 SE 28 39 15 21 1017.3 - 0.0
21/10:30am 23.9 20.8 18.5 72 3.4 SE 32 43 17 23 1017.3 1015.8 0.0
21/10:00am 24.9 23.2 19.7 73 3.4 SE 28 39 15 21 1017.2 1015.7 0.2
21/09:40am 24.0 22.7 19.1 74 3.2 SE 24 37 13 20 1017.3 1015.8 0.2
21/09:39am 24.1 22.8 19.0 73 3.3 SE 24 35 13 19 1017.2 - 0.2
21/09:30am 24.3 23.0 19.1 73 3.4 SE 24 37 13 20 1017.2 1015.7 0.2
21/09:20am 23.7 22.9 19.2 76 2.9 SE 22 35 12 19 1017.2 1015.7 0.2
21/09:19am 23.8 23.1 19.5 77 2.8 SE 22 35 12 19 1017.1 - 0.2
21/09:00am 23.8 23.6 19.3 76 2.9 SE 19 32 10 17 1017.1 1015.6 0.2
21/08:30am 23.3 21.8 19.5 79 2.5 SE 26 37 14 20 1016.9 1015.4 0.2
21/08:26am 23.4 22.2 19.3 78 2.6 SE 24 37 13 20 1016.9 1015.4 0.2
21/08:25am 23.4 22.1 19.1 77 2.8 SE 24 37 13 20 1016.9 - 0.2
21/08:00am 23.1 22.3 19.3 79 2.4 SE 22 35 12 19 1016.6 1015.1 0.2
21/07:36am 22.5 22.3 19.7 84 1.8 SE 20 30 11 16 1016.4 1014.9 0.2
21/07:35am 22.5 22.3 19.7 84 1.8 SE 20 30 11 16 1016.4 - 0.2
21/07:30am 22.5 22.3 19.7 84 1.8 SE 20 32 11 17 1016.4 1014.9 0.2
21/07:28am 22.5 21.8 19.5 83 1.9 SE 22 35 12 19 1016.4 1014.9 0.2
21/07:27am 22.5 22.2 19.5 83 1.9 SE 20 35 11 19 1016.4 - 0.2
21/07:00am 22.2 21.8 19.4 84 1.8 SE 20 35 11 19 1016.0 1014.5 0.2
21/06:41am 22.2 21.5 19.4 84 1.8 SE 22 32 12 17 1015.7 - 0.2
21/06:36am 22.2 21.8 19.4 84 1.8 SE 20 32 11 17 1015.7 1014.3 0.2
21/06:35am 22.2 21.5 19.4 84 1.8 SE 22 32 12 17 1015.7 - 0.2
21/06:31am 22.2 21.8 19.4 84 1.8 SE 20 32 11 17 1015.6 - 0.2
21/06:30am 22.2 21.5 19.4 84 1.8 SE 22 32 12 17 1015.6 1014.2 0.2
21/06:26am 22.2 21.5 19.4 84 1.8 SE 22 32 12 17 1015.6 1014.2 0.2
21/06:25am 22.2 21.8 19.4 84 1.8 SE 20 32 11 17 1015.6 - 0.2
21/06:00am 22.3 21.5 19.3 83 1.9 SE 22 37 12 20 1015.5 1014.1 0.2

Other formats

Comma delimited format used in spreadsheet applications
http://www.bom.gov.au/fwo/IDW60801/IDW60801.96995.axf

JavaScript Object Notation format (JSON) in row-major order
http://www.bom.gov.au/fwo/IDW60801/IDW60801.96995.json

Data quality

Most of these data are generated automatically and are frequently updated. Quality checks on data are not normally performed. It is possible for incorrect values to appear. Refer to information at About Latest Weather Observations and please check the disclaimer before using these data.